createdAt,value
2023-01-28T00:00:53.606Z,6.54
2023-01-28T00:03:20.210Z,6.44
2023-01-28T00:05:46.771Z,6.55
2023-01-28T00:08:14.866Z,6.44
2023-01-28T00:10:43.073Z,6.52
2023-01-28T00:13:12.717Z,6.45
2023-01-28T00:15:39.344Z,6.47
2023-01-28T00:18:05.901Z,6.50
2023-01-28T00:20:32.565Z,6.51
2023-01-28T00:22:59.107Z,6.59
2023-01-28T00:25:25.649Z,6.54
2023-01-28T00:27:52.239Z,6.67
2023-01-28T00:30:19.478Z,6.66
2023-01-28T00:32:46.091Z,6.67
2023-01-28T00:35:13.453Z,6.61
2023-01-28T00:37:41.279Z,6.68
2023-01-28T00:40:09.845Z,6.61
2023-01-28T00:42:37.299Z,6.35
2023-01-28T00:45:04.144Z,6.37
2023-01-28T00:47:30.693Z,6.45
2023-01-28T00:49:57.223Z,6.45
2023-01-28T00:52:23.818Z,6.33
2023-01-28T00:54:50.334Z,6.41
2023-01-28T00:57:16.869Z,6.34
2023-01-28T00:59:43.697Z,6.31
2023-01-28T01:02:13.879Z,6.40
2023-01-28T01:04:41.051Z,6.52
2023-01-28T01:07:07.665Z,6.51
2023-01-28T01:09:34.612Z,6.57
2023-01-28T01:12:01.465Z,6.61
2023-01-28T01:14:28.385Z,6.59
2023-01-28T01:16:55.099Z,6.61
2023-01-28T01:19:21.699Z,6.63
2023-01-28T01:21:50.425Z,6.59
2023-01-28T01:24:17.558Z,6.66
2023-01-28T01:26:44.327Z,6.63
2023-01-28T01:29:10.912Z,6.57
2023-01-28T01:31:37.551Z,6.55
2023-01-28T01:34:04.213Z,6.71
2023-01-28T01:36:31.177Z,6.72
2023-01-28T01:38:57.964Z,6.69
2023-01-28T01:41:31.212Z,6.56
2023-01-28T01:44:03.443Z,6.46
2023-01-28T01:46:45.563Z,6.53
2023-01-28T01:49:24.673Z,6.58
2023-01-28T01:52:01.261Z,6.45
2023-01-28T01:54:30.830Z,6.58
2023-01-28T01:56:59.469Z,6.53
2023-01-28T01:59:31.611Z,6.50
2023-01-28T02:02:01.458Z,6.61
2023-01-28T02:04:31.990Z,6.60
2023-01-28T02:07:01.488Z,6.68
2023-01-28T02:09:30.787Z,6.62
2023-01-28T02:12:03.318Z,6.63
2023-01-28T02:14:34.388Z,6.52
2023-01-28T02:17:01.937Z,6.50
2023-01-28T02:19:40.241Z,6.53
2023-01-28T02:22:24.887Z,6.61
2023-01-28T02:25:29.519Z,6.57
2023-01-28T02:28:12.884Z,6.53
2023-01-28T02:30:44.194Z,6.59
2023-01-28T02:33:18.288Z,6.64
2023-01-28T02:35:54.055Z,6.43
2023-01-28T02:38:33.152Z,6.61
2023-01-28T02:41:08.889Z,6.51
2023-01-28T02:43:37.378Z,6.72
2023-01-28T02:46:39.237Z,6.60
2023-01-28T02:49:11.774Z,6.52
2023-01-28T02:51:44.362Z,6.62
2023-01-28T02:54:17.715Z,6.61
2023-01-28T02:57:17.965Z,6.65
2023-01-28T02:59:53.869Z,6.57
2023-01-28T03:02:42.893Z,6.57
2023-01-28T03:05:22.381Z,6.60
2023-01-28T03:07:49.919Z,6.61
2023-01-28T03:10:20.628Z,6.66
2023-01-28T03:13:10.275Z,6.62
2023-01-28T03:16:07.134Z,6.57
2023-01-28T03:19:10.239Z,6.64
2023-01-28T03:22:00.869Z,6.54
2023-01-28T03:24:56.636Z,6.60
2023-01-28T03:27:51.413Z,6.53
2023-01-28T03:30:48.227Z,6.66
2023-01-28T03:33:45.106Z,6.66
2023-01-28T03:36:30.390Z,6.54
2023-01-28T03:38:58.444Z,6.62
2023-01-28T03:41:26.439Z,6.62
2023-01-28T03:43:55.923Z,6.61
2023-01-28T03:46:23.035Z,6.61
2023-01-28T03:48:49.604Z,6.57
2023-01-28T03:51:17.798Z,6.59
2023-01-28T03:53:44.355Z,6.67
2023-01-28T03:56:18.114Z,6.61
2023-01-28T03:58:53.944Z,6.56
2023-01-28T04:01:20.952Z,6.62
2023-01-28T04:03:47.980Z,6.50
2023-01-28T04:06:18.659Z,6.47
2023-01-28T04:08:59.232Z,6.53
2023-01-28T04:11:52.250Z,6.59
2023-01-28T04:14:40.112Z,6.68
2023-01-28T04:17:11.070Z,6.71
2023-01-28T04:19:38.586Z,6.70
2023-01-28T04:22:10.179Z,6.56
2023-01-28T04:24:36.994Z,6.41
2023-01-28T04:27:03.625Z,6.58
2023-01-28T04:29:31.627Z,6.63
2023-01-28T04:32:06.994Z,6.67
2023-01-28T04:34:54.760Z,6.73
2023-01-28T04:37:27.420Z,6.67
2023-01-28T04:40:09.765Z,6.61
2023-01-28T04:43:02.708Z,6.69
2023-01-28T04:45:36.677Z,6.68
2023-01-28T04:48:41.598Z,6.60
2023-01-28T04:51:26.684Z,6.67
2023-01-28T04:54:17.235Z,6.74
2023-01-28T04:56:43.881Z,6.58
2023-01-28T04:59:10.386Z,6.58
2023-01-28T05:01:38.002Z,6.62
2023-01-28T05:04:05.994Z,6.66
2023-01-28T05:06:36.130Z,6.67
2023-01-28T05:09:08.643Z,6.65
2023-01-28T05:11:37.853Z,6.68
2023-01-28T05:14:05.836Z,6.69
2023-01-28T05:16:42.731Z,6.76
2023-01-28T05:19:09.384Z,6.69
2023-01-28T05:21:39.782Z,6.70
2023-01-28T05:24:14.412Z,6.66
2023-01-28T05:26:41.130Z,6.69
2023-01-28T05:29:08.177Z,6.67
2023-01-28T05:31:35.108Z,6.65
2023-01-28T05:34:01.772Z,6.71
2023-01-28T05:36:28.321Z,6.68
2023-01-28T05:38:55.810Z,6.73
2023-01-28T05:41:22.394Z,6.67
2023-01-28T05:43:55.803Z,6.68
2023-01-28T05:46:45.425Z,6.65
2023-01-28T05:49:34.759Z,6.32
2023-01-28T05:52:26.963Z,6.52
2023-01-28T05:54:53.674Z,6.62
2023-01-28T05:57:20.273Z,6.34
2023-01-28T05:59:46.886Z,6.48
2023-01-28T06:02:13.520Z,6.38
2023-01-28T06:04:41.660Z,6.54
2023-01-28T06:07:09.114Z,6.36
2023-01-28T06:09:38.067Z,6.52
2023-01-28T06:12:05.213Z,6.36
2023-01-28T06:14:39.384Z,6.28
2023-01-28T06:17:25.867Z,6.53
2023-01-28T06:20:02.033Z,6.36
2023-01-28T06:22:30.746Z,6.37
2023-01-28T06:24:57.305Z,6.50
2023-01-28T06:27:23.949Z,6.46
2023-01-28T06:29:50.608Z,6.36
2023-01-28T06:32:17.192Z,6.52
2023-01-28T06:34:43.757Z,6.55
2023-01-28T06:37:13.439Z,6.59
2023-01-28T06:39:40.155Z,6.56
2023-01-28T06:42:06.880Z,6.54
2023-01-28T06:44:33.442Z,6.67
2023-01-28T06:47:00.180Z,6.65
2023-01-28T06:49:26.725Z,6.66
2023-01-28T06:51:53.272Z,6.76
2023-01-28T06:54:19.997Z,6.78
2023-01-28T06:56:46.542Z,6.73
2023-01-28T06:59:13.598Z,6.73
2023-01-28T07:01:40.246Z,6.69
2023-01-28T07:04:07.171Z,6.78
2023-01-28T07:06:33.706Z,6.46
2023-01-28T07:09:00.228Z,6.59
2023-01-28T07:11:26.754Z,6.63
2023-01-28T07:13:53.467Z,6.63
2023-01-28T07:16:19.999Z,6.65
2023-01-28T07:18:46.617Z,6.76
2023-01-28T07:21:13.147Z,6.67
2023-01-28T07:23:39.964Z,6.86
2023-01-28T07:26:06.526Z,6.89
2023-01-28T07:28:33.089Z,6.91
2023-01-28T07:30:59.827Z,6.88
2023-01-28T07:33:26.741Z,6.96
2023-01-28T07:35:53.330Z,6.93
2023-01-28T07:38:19.843Z,6.86
2023-01-28T07:40:46.488Z,6.97
2023-01-28T07:43:13.148Z,6.86
2023-01-28T07:45:40.641Z,7.01
2023-01-28T07:48:09.841Z,6.93
2023-01-28T07:50:38.037Z,7.05
2023-01-28T07:53:10.782Z,6.93
2023-01-28T07:55:38.310Z,6.95
2023-01-28T07:58:07.244Z,7.05
2023-01-28T08:00:35.965Z,7.02
2023-01-28T08:03:06.775Z,6.99
2023-01-28T08:05:43.291Z,6.78
2023-01-28T08:08:11.387Z,6.72
2023-01-28T08:10:38.814Z,6.68
2023-01-28T08:13:06.099Z,6.69
2023-01-28T08:15:35.197Z,6.81
2023-01-28T08:18:03.125Z,6.90
2023-01-28T08:20:30.457Z,6.86
2023-01-28T08:23:12.708Z,6.96
2023-01-28T08:25:39.363Z,7.03
2023-01-28T08:28:06.962Z,6.78
2023-01-28T08:30:34.239Z,7.02
2023-01-28T08:33:01.418Z,7.10
2023-01-28T08:35:28.578Z,7.06
2023-01-28T08:37:55.144Z,6.98
2023-01-28T08:40:21.965Z,6.76
2023-01-28T08:42:50.255Z,7.01
2023-01-28T08:45:17.611Z,6.96
2023-01-28T08:47:48.732Z,7.14
2023-01-28T08:50:16.659Z,7.06
2023-01-28T08:52:44.437Z,7.16
2023-01-28T08:55:12.140Z,7.24
2023-01-28T08:57:39.394Z,7.10
2023-01-28T09:00:07.369Z,7.31
2023-01-28T09:02:33.897Z,7.36
2023-01-28T09:05:00.494Z,7.41
2023-01-28T09:07:27.142Z,7.42
2023-01-28T09:09:53.684Z,7.40
2023-01-28T09:12:20.369Z,7.52
2023-01-28T09:14:46.903Z,7.35
2023-01-28T09:17:13.461Z,7.53
2023-01-28T09:19:40.210Z,7.30
2023-01-28T09:22:06.790Z,7.68
2023-01-28T09:24:33.429Z,7.74
2023-01-28T09:26:59.991Z,7.74
2023-01-28T09:29:26.561Z,7.86
2023-01-28T09:31:53.136Z,7.94
2023-01-28T09:34:19.709Z,7.89
2023-01-28T09:36:46.581Z,7.99
2023-01-28T09:39:13.146Z,8.08
2023-01-28T09:41:42.634Z,8.08
2023-01-28T09:44:28.880Z,8.04
2023-01-28T09:47:01.973Z,7.83
2023-01-28T09:49:44.627Z,8.08
2023-01-28T09:52:17.723Z,8.17
2023-01-28T09:55:02.825Z,8.20
2023-01-28T09:57:41.623Z,8.30
2023-01-28T10:00:37.966Z,8.42
2023-01-28T10:03:28.224Z,8.49
2023-01-28T10:06:32.575Z,8.40
2023-01-28T10:09:19.356Z,8.60
2023-01-28T10:11:51.438Z,8.52
2023-01-28T10:14:24.471Z,8.53
2023-01-28T10:17:00.710Z,8.53
2023-01-28T10:19:35.600Z,8.67
2023-01-28T10:22:07.378Z,8.82
2023-01-28T10:24:36.520Z,8.90
2023-01-28T10:27:12.588Z,9.02
2023-01-28T10:29:40.423Z,9.05
2023-01-28T10:32:34.376Z,9.18
2023-01-28T10:35:03.729Z,9.29
2023-01-28T10:37:39.729Z,9.04
2023-01-28T10:40:14.225Z,9.29
2023-01-28T10:42:40.901Z,9.20
2023-01-28T10:45:31.023Z,9.16
2023-01-28T10:48:07.856Z,9.15
2023-01-28T10:50:37.855Z,9.09
2023-01-28T10:53:06.121Z,8.76
2023-01-28T10:55:55.863Z,9.14
2023-01-28T10:58:25.528Z,9.27
2023-01-28T11:00:54.592Z,9.28
2023-01-28T11:03:22.944Z,9.57
2023-01-28T11:05:54.496Z,9.89
2023-01-28T11:08:22.370Z,10.12
2023-01-28T11:10:49.574Z,10.31
2023-01-28T11:13:26.710Z,9.92
2023-01-28T11:16:05.571Z,9.72
2023-01-28T11:18:40.807Z,9.84
2023-01-28T11:21:16.924Z,10.07
2023-01-28T11:23:59.664Z,10.13
2023-01-28T11:26:39.736Z,10.83
2023-01-28T11:29:07.327Z,11.20
2023-01-28T11:31:44.037Z,10.93
2023-01-28T11:34:17.256Z,11.09
2023-01-28T11:37:00.891Z,10.96
2023-01-28T11:39:29.559Z,10.91
2023-01-28T11:42:11.258Z,10.55
2023-01-28T11:44:38.524Z,10.42
2023-01-28T11:47:19.624Z,10.54
2023-01-28T11:49:55.334Z,10.61
2023-01-28T11:52:55.300Z,10.56
2023-01-28T11:55:39.958Z,10.44
2023-01-28T11:58:25.947Z,10.67
2023-01-28T12:01:16.619Z,10.80
2023-01-28T12:04:07.890Z,11.02
2023-01-28T12:06:53.207Z,10.30
2023-01-28T12:09:44.185Z,9.58
2023-01-28T12:12:38.592Z,9.67
2023-01-28T12:15:20.340Z,9.55
2023-01-28T12:18:06.409Z,9.56
2023-01-28T12:20:42.136Z,9.97
2023-01-28T12:23:46.453Z,10.11
2023-01-28T12:26:16.364Z,10.16
2023-01-28T12:28:44.585Z,10.49
2023-01-28T12:31:20.076Z,10.38
2023-01-28T12:33:54.577Z,10.52
2023-01-28T12:36:37.997Z,10.33
2023-01-28T12:39:23.123Z,10.70
2023-01-28T12:42:34.531Z,10.22
2023-01-28T12:45:40.943Z,9.97
2023-01-28T12:48:53.742Z,10.16
2023-01-28T12:51:27.542Z,10.40
2023-01-28T12:54:03.881Z,10.50
2023-01-28T12:56:40.249Z,10.63
2023-01-28T12:59:20.094Z,10.77
2023-01-28T13:02:11.476Z,10.50
2023-01-28T13:04:43.945Z,10.15
2023-01-28T13:07:50.097Z,9.82
2023-01-28T13:10:24.342Z,9.67
2023-01-28T13:12:51.782Z,9.33
2023-01-28T13:15:20.201Z,8.97
2023-01-28T13:18:05.065Z,8.33
2023-01-28T13:20:49.971Z,8.67
2023-01-28T13:23:37.629Z,8.59
2023-01-28T13:26:19.206Z,8.54
2023-01-28T13:28:48.062Z,8.61
2023-01-28T13:31:17.709Z,8.62
2023-01-28T13:33:54.738Z,8.61
2023-01-28T13:36:45.606Z,8.56
2023-01-28T13:39:18.114Z,8.60
2023-01-28T13:41:52.396Z,8.66
2023-01-28T13:44:32.593Z,8.56
2023-01-28T13:47:14.711Z,8.51
2023-01-28T13:49:48.774Z,8.44
2023-01-28T13:52:25.171Z,8.44
2023-01-28T13:55:03.474Z,8.52
2023-01-28T13:57:58.040Z,8.29
2023-01-28T14:00:33.013Z,8.36
2023-01-28T14:03:26.245Z,8.44
2023-01-28T14:06:26.398Z,8.52
2023-01-28T14:09:04.322Z,8.45
2023-01-28T14:12:11.524Z,8.49
2023-01-28T14:15:16.591Z,8.19
2023-01-28T14:17:53.855Z,8.29
2023-01-28T14:20:28.850Z,8.23
2023-01-28T14:23:01.528Z,8.48
2023-01-28T14:25:40.967Z,8.63
2023-01-28T14:28:12.796Z,8.45
2023-01-28T14:30:50.672Z,8.42
2023-01-28T14:33:17.798Z,8.22
2023-01-28T14:35:47.147Z,8.45
2023-01-28T14:38:21.140Z,8.47
2023-01-28T14:40:55.569Z,8.38
2023-01-28T14:43:24.868Z,7.86
2023-01-28T14:45:51.429Z,8.05
2023-01-28T14:48:29.754Z,8.27
2023-01-28T14:51:31.197Z,8.18
2023-01-28T14:54:18.450Z,8.27
2023-01-28T14:57:15.639Z,8.20
2023-01-28T14:59:53.811Z,8.15
2023-01-28T15:02:31.049Z,7.92
2023-01-28T15:05:15.023Z,7.80
2023-01-28T15:07:46.368Z,7.82
2023-01-28T15:10:19.144Z,8.11
2023-01-28T15:12:52.013Z,8.20
2023-01-28T15:15:29.544Z,8.23
2023-01-28T15:18:03.209Z,8.01
2023-01-28T15:20:30.752Z,8.18
2023-01-28T15:22:57.555Z,8.20
2023-01-28T15:25:28.115Z,8.36
2023-01-28T15:27:58.825Z,8.37
2023-01-28T15:30:28.711Z,8.45
2023-01-28T15:33:01.349Z,8.41
2023-01-28T15:35:28.409Z,8.37
2023-01-28T15:37:55.046Z,8.31
2023-01-28T15:40:23.075Z,8.32
2023-01-28T15:42:50.870Z,8.40
2023-01-28T15:45:19.658Z,8.36
2023-01-28T15:47:47.937Z,8.36
2023-01-28T15:50:19.367Z,8.25
2023-01-28T15:52:46.483Z,8.26
2023-01-28T15:55:37.392Z,8.24
2023-01-28T15:58:20.410Z,8.26
2023-01-28T16:00:48.665Z,8.32
2023-01-28T16:03:20.733Z,8.28
2023-01-28T16:06:02.406Z,8.28
2023-01-28T16:11:02.775Z,8.26
2023-01-28T16:13:32.831Z,8.18
2023-01-28T16:16:01.545Z,7.76
2023-01-28T16:18:43.327Z,8.04
2023-01-28T16:21:15.209Z,8.17
2023-01-28T16:24:13.560Z,8.09
2023-01-28T16:26:40.127Z,7.90
2023-01-28T16:29:15.216Z,7.94
2023-01-28T16:31:41.820Z,8.01
2023-01-28T16:34:10.888Z,8.14
2023-01-28T16:36:37.588Z,8.07
2023-01-28T16:39:04.220Z,8.12
2023-01-28T16:41:35.291Z,8.09
2023-01-28T16:44:05.530Z,8.11
2023-01-28T16:46:33.458Z,8.14
2023-01-28T16:49:00.413Z,8.09
2023-01-28T16:51:27.012Z,8.10
2023-01-28T16:53:53.637Z,8.10
2023-01-28T16:56:43.607Z,8.05
2023-01-28T16:59:11.936Z,7.93
2023-01-28T17:01:38.592Z,7.98
2023-01-28T17:04:11.546Z,7.99
2023-01-28T17:06:39.720Z,8.08
2023-01-28T17:09:06.439Z,8.02
2023-01-28T17:11:34.057Z,8.06
2023-01-28T17:14:01.113Z,8.12
2023-01-28T17:16:28.093Z,8.07
2023-01-28T17:18:55.039Z,8.00
2023-01-28T17:21:21.956Z,8.09
2023-01-28T17:23:48.646Z,7.99
2023-01-28T17:26:16.347Z,8.05
2023-01-28T17:28:43.414Z,8.04
2023-01-28T17:31:12.850Z,7.93
2023-01-28T17:33:40.710Z,7.92
2023-01-28T17:36:07.980Z,7.97
2023-01-28T17:38:34.646Z,7.89
2023-01-28T17:41:05.856Z,7.88
2023-01-28T17:43:34.444Z,7.91
2023-01-28T17:46:01.789Z,7.89
2023-01-28T17:48:29.454Z,7.87
2023-01-28T17:50:57.195Z,7.48
2023-01-28T17:53:24.472Z,7.68
2023-01-28T17:55:51.200Z,7.72
2023-01-28T17:58:17.811Z,7.76
2023-01-28T18:00:44.393Z,7.84
2023-01-28T18:03:15.065Z,7.95
2023-01-28T18:05:42.255Z,7.95
2023-01-28T18:08:08.925Z,7.82
2023-01-28T18:10:35.703Z,7.77
2023-01-28T18:13:02.273Z,7.92
2023-01-28T18:15:28.911Z,7.86
2023-01-28T18:17:55.461Z,7.87
2023-01-28T18:20:22.026Z,7.81
2023-01-28T18:22:48.768Z,7.79
2023-01-28T18:25:17.596Z,7.85
2023-01-28T18:27:45.168Z,7.88
2023-01-28T18:30:14.099Z,7.89
2023-01-28T18:32:40.740Z,7.82
2023-01-28T18:35:07.877Z,7.79
2023-01-28T18:37:34.423Z,7.72
2023-01-28T18:40:01.024Z,7.74
2023-01-28T18:42:27.663Z,7.81
2023-01-28T18:44:54.250Z,7.76
2023-01-28T18:47:21.523Z,7.69
2023-01-28T18:49:48.070Z,7.64
2023-01-28T18:52:14.681Z,7.62
2023-01-28T18:54:41.229Z,7.54
2023-01-28T18:57:07.805Z,7.55
2023-01-28T18:59:34.381Z,7.63
2023-01-28T19:02:01.559Z,7.74
2023-01-28T19:04:28.105Z,7.72
2023-01-28T19:06:57.847Z,7.85
2023-01-28T19:09:24.371Z,7.83
2023-01-28T19:11:51.191Z,7.84
2023-01-28T19:14:18.135Z,7.81
2023-01-28T19:16:44.847Z,7.80
2023-01-28T19:19:12.155Z,7.79
2023-01-28T19:21:38.885Z,7.85
2023-01-28T19:24:09.609Z,7.88
2023-01-28T19:26:37.072Z,7.86
2023-01-28T19:29:07.573Z,7.94
2023-01-28T19:31:34.150Z,7.98
2023-01-28T19:34:00.870Z,8.02
2023-01-28T19:36:29.798Z,7.99
2023-01-28T19:39:01.679Z,7.97
2023-01-28T19:41:29.051Z,8.03
2023-01-28T19:43:56.623Z,8.04
2023-01-28T19:46:23.272Z,8.05
2023-01-28T19:48:49.903Z,8.10
2023-01-28T19:51:17.289Z,8.11
2023-01-28T19:53:45.050Z,8.17
2023-01-28T19:56:16.317Z,8.07
2023-01-28T19:58:44.344Z,8.00
2023-01-28T20:01:13.619Z,7.96
2023-01-28T20:03:40.782Z,7.80
2023-01-28T20:06:11.580Z,7.80
2023-01-28T20:08:38.146Z,7.89
2023-01-28T20:11:11.043Z,7.93
2023-01-28T20:13:39.529Z,7.99
2023-01-28T20:16:08.363Z,7.94
2023-01-28T20:18:35.738Z,8.01
2023-01-28T20:21:04.849Z,8.06
2023-01-28T20:23:31.752Z,8.02
2023-01-28T20:26:00.937Z,8.16
2023-01-28T20:28:28.147Z,8.19
2023-01-28T20:30:55.513Z,8.23
2023-01-28T20:33:22.884Z,8.15
2023-01-28T20:35:49.451Z,8.03
2023-01-28T20:38:15.964Z,8.13
2023-01-28T20:40:43.250Z,8.20
2023-01-28T20:43:10.086Z,8.25
2023-01-28T20:45:36.687Z,8.31
2023-01-28T20:48:03.238Z,8.28
2023-01-28T20:50:29.760Z,8.35
2023-01-28T20:52:56.486Z,8.29
2023-01-28T20:55:23.082Z,8.35
2023-01-28T20:57:51.947Z,8.22
2023-01-28T21:00:19.087Z,8.37
2023-01-28T21:02:46.012Z,8.33
2023-01-28T21:05:12.868Z,8.14
2023-01-28T21:07:39.551Z,8.30
2023-01-28T21:10:06.617Z,8.14
2023-01-28T21:12:33.436Z,8.25
2023-01-28T21:14:59.945Z,8.29
2023-01-28T21:17:26.509Z,8.35
2023-01-28T21:19:53.024Z,8.36
2023-01-28T21:22:20.119Z,8.32
2023-01-28T21:24:48.843Z,8.25
2023-01-28T21:27:15.525Z,8.26
2023-01-28T21:29:42.328Z,8.34
2023-01-28T21:32:09.006Z,8.26
2023-01-28T21:34:35.665Z,8.05
2023-01-28T21:37:02.279Z,8.06
2023-01-28T21:39:28.882Z,8.19
2023-01-28T21:41:55.622Z,8.10
2023-01-28T21:44:22.388Z,8.19
2023-01-28T21:46:49.013Z,8.25
2023-01-28T21:49:15.661Z,8.28
2023-01-28T21:51:47.938Z,8.29
2023-01-28T21:54:16.906Z,8.20
2023-01-28T21:56:47.838Z,8.10
2023-01-28T21:59:30.647Z,8.17
2023-01-28T22:02:02.703Z,8.17
2023-01-28T22:04:32.627Z,8.10
2023-01-28T22:07:00.258Z,8.05
2023-01-28T22:09:27.650Z,8.01
2023-01-28T22:11:54.399Z,7.78
2023-01-28T22:14:21.000Z,7.87
2023-01-28T22:16:48.076Z,7.82
2023-01-28T22:19:15.031Z,7.89
2023-01-28T22:21:43.620Z,7.90
2023-01-28T22:24:15.188Z,7.88
2023-01-28T22:26:43.056Z,7.99
2023-01-28T22:29:10.443Z,8.09
2023-01-28T22:31:37.620Z,7.88
2023-01-28T22:34:04.989Z,7.87
2023-01-28T22:36:32.984Z,7.86
2023-01-28T22:39:02.915Z,7.89
2023-01-28T22:41:30.177Z,7.69
2023-01-28T22:43:56.904Z,7.76
2023-01-28T22:46:25.055Z,7.98
2023-01-28T22:48:51.819Z,7.96
2023-01-28T22:51:24.309Z,8.01
2023-01-28T22:53:52.210Z,8.14
2023-01-28T22:56:22.054Z,8.19
2023-01-28T22:58:48.740Z,8.02
2023-01-28T23:01:15.685Z,7.95
2023-01-28T23:03:49.822Z,7.90
2023-01-28T23:06:18.877Z,7.82
2023-01-28T23:08:45.789Z,7.83
2023-01-28T23:11:15.549Z,7.84
2023-01-28T23:14:01.610Z,7.85
2023-01-28T23:16:47.789Z,8.01
2023-01-28T23:19:33.540Z,8.00
2023-01-28T23:22:19.317Z,8.16
2023-01-28T23:24:45.865Z,8.07
2023-01-28T23:27:12.421Z,8.01
2023-01-28T23:29:38.973Z,7.86
2023-01-28T23:32:09.910Z,7.85
2023-01-28T23:34:41.629Z,7.90
2023-01-28T23:37:09.886Z,7.85
2023-01-28T23:39:36.691Z,8.03
2023-01-28T23:42:13.904Z,8.08
2023-01-28T23:44:40.691Z,7.97
2023-01-28T23:47:07.692Z,7.93
2023-01-28T23:49:34.254Z,7.98
2023-01-28T23:52:01.403Z,7.86
2023-01-28T23:54:28.013Z,7.83
2023-01-28T23:56:54.533Z,7.78
2023-01-28T23:59:21.465Z,7.80
